sensor_id;sensor_type;location;lat;lon;timestamp;pressure;altitude;pressure_sealevel;temperature;humidity
49451;BME280;35336;48.400;10.886;2023-04-25T00:00:12;95614.69;;;6.53;73.43
49451;BME280;35336;48.400;10.886;2023-04-25T00:00:28;95610.53;;;6.44;73.46
49451;BME280;35336;48.400;10.886;2023-04-25T00:00:43;95616.72;;;6.51;73.40
49451;BME280;35336;48.400;10.886;2023-04-25T00:00:59;95627.81;;;6.61;73.55
49451;BME280;35336;48.400;10.886;2023-04-25T00:01:14;95631.84;;;6.57;73.49
49451;BME280;35336;48.400;10.886;2023-04-25T00:01:30;95615.50;;;6.54;73.70
49451;BME280;35336;48.400;10.886;2023-04-25T00:01:45;95626.19;;;6.60;73.32
49451;BME280;35336;48.400;10.886;2023-04-25T00:02:00;95598.28;;;6.43;73.16
49451;BME280;35336;48.400;10.886;2023-04-25T00:02:15;95616.34;;;6.54;73.21
49451;BME280;35336;48.400;10.886;2023-04-25T00:02:31;95637.63;;;6.61;73.36
49451;BME280;35336;48.400;10.886;2023-04-25T00:02:46;95601.97;;;6.42;73.43
49451;BME280;35336;48.400;10.886;2023-04-25T00:03:01;95623.28;;;6.55;73.73
49451;BME280;35336;48.400;10.886;2023-04-25T00:03:17;95628.38;;;6.57;73.66
49451;BME280;35336;48.400;10.886;2023-04-25T00:03:32;95621.44;;;6.56;73.52
49451;BME280;35336;48.400;10.886;2023-04-25T00:03:48;95627.56;;;6.56;73.60
49451;BME280;35336;48.400;10.886;2023-04-25T00:04:03;95618.00;;;6.55;73.39
49451;BME280;35336;48.400;10.886;2023-04-25T00:04:19;95629.84;;;6.59;73.56
49451;BME280;35336;48.400;10.886;2023-04-25T00:04:34;95629.06;;;6.65;73.44
49451;BME280;35336;48.400;10.886;2023-04-25T00:04:49;95626.63;;;6.64;73.67
49451;BME280;35336;48.400;10.886;2023-04-25T00:05:05;95620.88;;;6.60;73.22
49451;BME280;35336;48.400;10.886;2023-04-25T00:05:20;95632.75;;;6.64;73.35
49451;BME280;35336;48.400;10.886;2023-04-25T00:05:36;95636.41;;;6.63;73.12
49451;BME280;35336;48.400;10.886;2023-04-25T00:05:51;95636.78;;;6.60;73.32
49451;BME280;35336;48.400;10.886;2023-04-25T00:06:07;95619.34;;;6.51;73.66
49451;BME280;35336;48.400;10.886;2023-04-25T00:06:22;95637.41;;;6.62;73.51
49451;BME280;35336;48.400;10.886;2023-04-25T00:06:37;95629.66;;;6.61;73.87
49451;BME280;35336;48.400;10.886;2023-04-25T00:06:53;95608.88;;;6.43;73.97
49451;BME280;35336;48.400;10.886;2023-04-25T00:07:09;95639.44;;;6.60;73.93
49451;BME280;35336;48.400;10.886;2023-04-25T00:07:25;95640.44;;;6.59;74.00
49451;BME280;35336;48.400;10.886;2023-04-25T00:07:40;95636.78;;;6.60;73.93
49451;BME280;35336;48.400;10.886;2023-04-25T00:07:57;95635.78;;;6.61;73.94
49451;BME280;35336;48.400;10.886;2023-04-25T00:08:12;95638.41;;;6.61;73.48
49451;BME280;35336;48.400;10.886;2023-04-25T00:08:29;95638.19;;;6.56;73.80
49451;BME280;35336;48.400;10.886;2023-04-25T00:08:44;95641.06;;;6.61;74.05
49451;BME280;35336;48.400;10.886;2023-04-25T00:09:00;95638.78;;;6.58;74.17
49451;BME280;35336;48.400;10.886;2023-04-25T00:09:15;95629.94;;;6.51;74.20
49451;BME280;35336;48.400;10.886;2023-04-25T00:09:31;95639.63;;;6.59;74.48
49451;BME280;35336;48.400;10.886;2023-04-25T00:09:46;95624.03;;;6.49;74.20
49451;BME280;35336;48.400;10.886;2023-04-25T00:10:03;95636.13;;;6.58;74.54
49451;BME280;35336;48.400;10.886;2023-04-25T00:10:20;95621.19;;;6.50;73.92
49451;BME280;35336;48.400;10.886;2023-04-25T00:10:36;95632.03;;;6.56;74.20
49451;BME280;35336;48.400;10.886;2023-04-25T00:10:51;95642.06;;;6.60;73.95
49451;BME280;35336;48.400;10.886;2023-04-25T00:11:06;95633.47;;;6.58;73.82
49451;BME280;35336;48.400;10.886;2023-04-25T00:11:22;95636.78;;;6.60;73.98
49451;BME280;35336;48.400;10.886;2023-04-25T00:11:38;95608.28;;;6.41;73.99
49451;BME280;35336;48.400;10.886;2023-04-25T00:11:53;95636.78;;;6.60;74.04
49451;BME280;35336;48.400;10.886;2023-04-25T00:12:09;95650.66;;;6.62;73.98
49451;BME280;35336;48.400;10.886;2023-04-25T00:12:24;95632.88;;;6.56;73.81
49451;BME280;35336;48.400;10.886;2023-04-25T00:12:39;95614.63;;;6.46;73.79
49451;BME280;35336;48.400;10.886;2023-04-25T00:12:55;95641.72;;;6.63;74.05
49451;BME280;35336;48.400;10.886;2023-04-25T00:13:10;95631.41;;;6.54;74.21
49451;BME280;35336;48.400;10.886;2023-04-25T00:13:26;95643.06;;;6.59;74.39
49451;BME280;35336;48.400;10.886;2023-04-25T00:13:41;95611.72;;;6.41;74.08
49451;BME280;35336;48.400;10.886;2023-04-25T00:13:57;95641.25;;;6.60;74.09
49451;BME280;35336;48.400;10.886;2023-04-25T00:14:12;95633.44;;;6.51;73.97
49451;BME280;35336;48.400;10.886;2023-04-25T00:14:28;95639.78;;;6.57;73.83
49451;BME280;35336;48.400;10.886;2023-04-25T00:14:44;95625.66;;;6.50;74.37
49451;BME280;35336;48.400;10.886;2023-04-25T00:14:59;95636.91;;;6.52;74.25
49451;BME280;35336;48.400;10.886;2023-04-25T00:15:14;95639.44;;;6.60;74.23
49451;BME280;35336;48.400;10.886;2023-04-25T00:15:30;95632.44;;;6.53;74.10
49451;BME280;35336;48.400;10.886;2023-04-25T00:15:45;95641.25;;;6.60;74.22
49451;BME280;35336;48.400;10.886;2023-04-25T00:16:00;95629.78;;;6.53;74.10
49451;BME280;35336;48.400;10.886;2023-04-25T00:16:16;95620.75;;;6.47;73.72
49451;BME280;35336;48.400;10.886;2023-04-25T00:16:32;95627.31;;;6.51;73.75
49451;BME280;35336;48.400;10.886;2023-04-25T00:16:47;95639.44;;;6.60;74.01
49451;BME280;35336;48.400;10.886;2023-04-25T00:17:02;95643.16;;;6.66;73.92
49451;BME280;35336;48.400;10.886;2023-04-25T00:17:18;95610.16;;;6.47;73.82
49451;BME280;35336;48.400;10.886;2023-04-25T00:17:33;95626.94;;;6.54;74.01
49451;BME280;35336;48.400;10.886;2023-04-25T00:17:49;95632.22;;;6.54;73.89
49451;BME280;35336;48.400;10.886;2023-04-25T00:18:04;95631.41;;;6.54;73.86
49451;BME280;35336;48.400;10.886;2023-04-25T00:18:19;95623.22;;;6.48;73.73
49451;BME280;35336;48.400;10.886;2023-04-25T00:18:35;95651.66;;;6.61;73.84
49451;BME280;35336;48.400;10.886;2023-04-25T00:18:50;95619.47;;;6.43;74.04
49451;BME280;35336;48.400;10.886;2023-04-25T00:19:06;95639.63;;;6.59;74.25
49451;BME280;35336;48.400;10.886;2023-04-25T00:19:21;95643.84;;;6.53;73.92
49451;BME280;35336;48.400;10.886;2023-04-25T00:19:37;95644.34;;;6.63;74.05
49451;BME280;35336;48.400;10.886;2023-04-25T00:19:52;95643.34;;;6.64;74.26
49451;BME280;35336;48.400;10.886;2023-04-25T00:20:08;95631.03;;;6.57;74.31
49451;BME280;35336;48.400;10.886;2023-04-25T00:20:23;95648.66;;;6.64;74.13
49451;BME280;35336;48.400;10.886;2023-04-25T00:20:39;95647.81;;;6.64;74.12
49451;BME280;35336;48.400;10.886;2023-04-25T00:20:55;95640.06;;;6.62;74.34
49451;BME280;35336;48.400;10.886;2023-04-25T00:21:10;95643.34;;;6.64;74.04
49451;BME280;35336;48.400;10.886;2023-04-25T00:21:26;95614.81;;;6.45;74.02
49451;BME280;35336;48.400;10.886;2023-04-25T00:21:41;95642.50;;;6.64;74.04
49451;BME280;35336;48.400;10.886;2023-04-25T00:21:56;95645.38;;;6.62;74.31
49451;BME280;35336;48.400;10.886;2023-04-25T00:22:12;95644.53;;;6.62;74.29
49451;BME280;35336;48.400;10.886;2023-04-25T00:22:27;95634.69;;;6.56;74.37
49451;BME280;35336;48.400;10.886;2023-04-25T00:22:42;95647.00;;;6.63;74.22
49451;BME280;35336;48.400;10.886;2023-04-25T00:22:58;95637.63;;;6.61;74.47
49451;BME280;35336;48.400;10.886;2023-04-25T00:23:14;95620.75;;;6.47;74.25
49451;BME280;35336;48.400;10.886;2023-04-25T00:23:29;95642.72;;;6.62;74.15
49451;BME280;35336;48.400;10.886;2023-04-25T00:23:45;95642.91;;;6.61;74.35
49451;BME280;35336;48.400;10.886;2023-04-25T00:24:00;95642.91;;;6.61;74.13
49451;BME280;35336;48.400;10.886;2023-04-25T00:24:16;95632.44;;;6.53;74.08
49451;BME280;35336;48.400;10.886;2023-04-25T00:24:31;95637.78;;;6.59;74.72
49451;BME280;35336;48.400;10.886;2023-04-25T00:24:46;95643.72;;;6.61;74.55
49451;BME280;35336;48.400;10.886;2023-04-25T00:25:03;95610.09;;;6.40;74.93
49451;BME280;35336;48.400;10.886;2023-04-25T00:25:19;95644.16;;;6.65;74.57
49451;BME280;35336;48.400;10.886;2023-04-25T00:25:34;95641.50;;;6.65;74.44
49451;BME280;35336;48.400;10.886;2023-04-25T00:25:50;95642.31;;;6.65;74.46
49451;BME280;35336;48.400;10.886;2023-04-25T00:26:05;95638.06;;;6.64;74.59
49451;BME280;35336;48.400;10.886;2023-04-25T00:26:20;95642.50;;;6.64;74.38
49451;BME280;35336;48.400;10.886;2023-04-25T00:26:36;95600.78;;;6.44;74.51
49451;BME280;35336;48.400;10.886;2023-04-25T00:26:51;95641.72;;;6.63;74.60
49451;BME280;35336;48.400;10.886;2023-04-25T00:27:07;95636.78;;;6.60;74.41
49451;BME280;35336;48.400;10.886;2023-04-25T00:27:22;95638.41;;;6.61;74.53
49451;BME280;35336;48.400;10.886;2023-04-25T00:27:37;95620.19;;;6.51;74.80
49451;BME280;35336;48.400;10.886;2023-04-25T00:27:53;95641.88;;;6.62;74.66
49451;BME280;35336;48.400;10.886;2023-04-25T00:28:08;95627.81;;;6.61;74.73
49451;BME280;35336;48.400;10.886;2023-04-25T00:28:23;95638.41;;;6.61;74.91
49451;BME280;35336;48.400;10.886;2023-04-25T00:28:39;95604.78;;;6.40;74.89
49451;BME280;35336;48.400;10.886;2023-04-25T00:28:55;95638.78;;;6.58;74.91
49451;BME280;35336;48.400;10.886;2023-04-25T00:29:10;95632.47;;;6.59;75.00
49451;BME280;35336;48.400;10.886;2023-04-25T00:29:26;95622.00;;;6.51;74.66
49451;BME280;35336;48.400;10.886;2023-04-25T00:29:41;95610.91;;;6.41;74.60
49451;BME280;35336;48.400;10.886;2023-04-25T00:29:56;95617.09;;;6.48;74.91
49451;BME280;35336;48.400;10.886;2023-04-25T00:30:12;95635.88;;;6.53;74.62
49451;BME280;35336;48.400;10.886;2023-04-25T00:30:27;95643.47;;;6.56;74.72
49451;BME280;35336;48.400;10.886;2023-04-25T00:30:43;95640.38;;;6.53;75.01
49451;BME280;35336;48.400;10.886;2023-04-25T00:30:58;95637.34;;;6.56;75.20
49451;BME280;35336;48.400;10.886;2023-04-25T00:31:14;95636.34;;;6.57;75.03
49451;BME280;35336;48.400;10.886;2023-04-25T00:31:30;95640.81;;;6.56;74.81
49451;BME280;35336;48.400;10.886;2023-04-25T00:31:45;95604.72;;;6.33;75.05
49451;BME280;35336;48.400;10.886;2023-04-25T00:32:01;95632.00;;;6.49;75.14
49451;BME280;35336;48.400;10.886;2023-04-25T00:32:16;95636.91;;;6.52;75.19
49451;BME280;35336;48.400;10.886;2023-04-25T00:32:32;95629.78;;;6.53;74.85
49451;BME280;35336;48.400;10.886;2023-04-25T00:32:47;95629.69;;;6.46;74.81
49451;BME280;35336;48.400;10.886;2023-04-25T00:33:02;95634.88;;;6.54;75.32
49451;BME280;35336;48.400;10.886;2023-04-25T00:33:18;95631.34;;;6.47;75.02
49451;BME280;35336;48.400;10.886;2023-04-25T00:33:33;95647.50;;;6.52;75.31
49451;BME280;35336;48.400;10.886;2023-04-25T00:33:48;95642.38;;;6.50;75.24
49451;BME280;35336;48.400;10.886;2023-04-25T00:34:04;95637.91;;;6.51;75.42
49451;BME280;35336;48.400;10.886;2023-04-25T00:34:19;95624.78;;;6.43;75.14
49451;BME280;35336;48.400;10.886;2023-04-25T00:34:34;95633.44;;;6.51;75.22
49451;BME280;35336;48.400;10.886;2023-04-25T00:34:50;95606.38;;;6.34;75.13
49451;BME280;35336;48.400;10.886;2023-04-25T00:35:05;95642.44;;;6.57;75.33
49451;BME280;35336;48.400;10.886;2023-04-25T00:35:20;95638.19;;;6.56;75.45
49451;BME280;35336;48.400;10.886;2023-04-25T00:35:36;95637.97;;;6.58;74.94
49451;BME280;35336;48.400;10.886;2023-04-25T00:35:51;95630.16;;;6.49;75.06
49451;BME280;35336;48.400;10.886;2023-04-25T00:36:07;95632.22;;;6.54;75.38
49451;BME280;35336;48.400;10.886;2023-04-25T00:36:22;95635.53;;;6.56;75.10
49451;BME280;35336;48.400;10.886;2023-04-25T00:36:38;95641.63;;;6.57;75.30
49451;BME280;35336;48.400;10.886;2023-04-25T00:36:53;95629.34;;;6.49;75.26
49451;BME280;35336;48.400;10.886;2023-04-25T00:37:08;95614.56;;;6.40;75.36
49451;BME280;35336;48.400;10.886;2023-04-25T00:37:24;95634.25;;;6.52;75.10
49451;BME280;35336;48.400;10.886;2023-04-25T00:37:40;95633.25;;;6.53;75.33
49451;BME280;35336;48.400;10.886;2023-04-25T00:37:55;95636.69;;;6.54;75.17
49451;BME280;35336;48.400;10.886;2023-04-25T00:38:10;95624.41;;;6.46;75.34
49451;BME280;35336;48.400;10.886;2023-04-25T00:38:26;95632.78;;;6.49;75.37
49451;BME280;35336;48.400;10.886;2023-04-25T00:38:41;95641.81;;;6.55;75.19
49451;BME280;35336;48.400;10.886;2023-04-25T00:38:56;95623.59;;;6.45;75.18
49451;BME280;35336;48.400;10.886;2023-04-25T00:39:12;95619.13;;;6.46;75.50
49451;BME280;35336;48.400;10.886;2023-04-25T00:39:27;95629.94;;;6.51;75.44
49451;BME280;35336;48.400;10.886;2023-04-25T00:39:43;95616.66;;;6.44;75.63
49451;BME280;35336;48.400;10.886;2023-04-25T00:39:58;95619.13;;;6.46;75.44
49451;BME280;35336;48.400;10.886;2023-04-25T00:40:13;95620.75;;;6.47;75.51
49451;BME280;35336;48.400;10.886;2023-04-25T00:40:29;95622.13;;;6.43;75.64
49451;BME280;35336;48.400;10.886;2023-04-25T00:40:44;95628.91;;;6.45;75.69
49451;BME280;35336;48.400;10.886;2023-04-25T00:41:00;95626.41;;;6.44;75.63
49451;BME280;35336;48.400;10.886;2023-04-25T00:41:15;95621.13;;;6.44;75.74
49451;BME280;35336;48.400;10.886;2023-04-25T00:41:30;95623.16;;;6.42;75.69
49451;BME280;35336;48.400;10.886;2023-04-25T00:41:46;95619.88;;;6.40;75.96
49451;BME280;35336;48.400;10.886;2023-04-25T00:42:02;95631.34;;;6.47;75.59
49451;BME280;35336;48.400;10.886;2023-04-25T00:42:18;95637.28;;;6.49;76.07
49451;BME280;35336;48.400;10.886;2023-04-25T00:42:35;95629.91;;;6.44;75.81
49451;BME280;35336;48.400;10.886;2023-04-25T00:42:54;95624.31;;;6.39;75.68
49451;BME280;35336;48.400;10.886;2023-04-25T00:43:09;95627.06;;;6.46;75.76
49451;BME280;35336;48.400;10.886;2023-04-25T00:43:27;95589.53;;;6.20;75.80
49451;BME280;35336;48.400;10.886;2023-04-25T00:43:44;95622.25;;;6.34;75.91
49451;BME280;35336;48.400;10.886;2023-04-25T00:44:01;95620.06;;;6.38;75.97
49451;BME280;35336;48.400;10.886;2023-04-25T00:44:17;95621.50;;;6.41;75.96
49451;BME280;35336;48.400;10.886;2023-04-25T00:44:33;95616.78;;;6.36;75.91
49451;BME280;35336;48.400;10.886;2023-04-25T00:44:52;95618.88;;;6.41;76.18
49451;BME280;35336;48.400;10.886;2023-04-25T00:45:09;95626.63;;;6.42;76.12
49451;BME280;35336;48.400;10.886;2023-04-25T00:45:28;95637.41;;;6.41;75.97
49451;BME280;35336;48.400;10.886;2023-04-25T00:45:46;95625.97;;;6.40;76.44
49451;BME280;35336;48.400;10.886;2023-04-25T00:46:02;95615.69;;;6.30;76.58
49451;BME280;35336;48.400;10.886;2023-04-25T00:46:17;95625.34;;;6.38;76.64
49451;BME280;35336;48.400;10.886;2023-04-25T00:46:33;95622.25;;;6.34;76.54
49451;BME280;35336;48.400;10.886;2023-04-25T00:46:49;95624.72;;;6.36;76.20
49451;BME280;35336;48.400;10.886;2023-04-25T00:47:05;95622.25;;;6.34;76.66
49451;BME280;35336;48.400;10.886;2023-04-25T00:47:22;95623.28;;;6.33;76.64
49451;BME280;35336;48.400;10.886;2023-04-25T00:47:38;95603.75;;;6.19;76.63
49451;BME280;35336;48.400;10.886;2023-04-25T00:47:54;95607.59;;;6.17;76.50
49451;BME280;35336;48.400;10.886;2023-04-25T00:48:09;95623.44;;;6.32;76.89
49451;BME280;35336;48.400;10.886;2023-04-25T00:48:25;95616.25;;;6.26;77.03
49451;BME280;35336;48.400;10.886;2023-04-25T00:48:40;95628.72;;;6.32;76.48
49451;BME280;35336;48.400;10.886;2023-04-25T00:48:55;95624.81;;;6.28;76.47
49451;BME280;35336;48.400;10.886;2023-04-25T00:49:11;95626.47;;;6.29;76.50
49451;BME280;35336;48.400;10.886;2023-04-25T00:49:26;95625.47;;;6.30;76.76
49451;BME280;35336;48.400;10.886;2023-04-25T00:49:41;95613.44;;;6.27;76.99
49451;BME280;35336;48.400;10.886;2023-04-25T00:49:57;95620.09;;;6.23;76.83
49451;BME280;35336;48.400;10.886;2023-04-25T00:50:13;95612.53;;;6.20;76.84
49451;BME280;35336;48.400;10.886;2023-04-25T00:50:28;95600.22;;;6.12;76.78
49451;BME280;35336;48.400;10.886;2023-04-25T00:50:51;95628.28;;;6.28;76.89
49451;BME280;35336;48.400;10.886;2023-04-25T00:51:07;95618.84;;;6.19;76.74
49451;BME280;35336;48.400;10.886;2023-04-25T00:51:23;95616.81;;;6.21;76.94
49451;BME280;35336;48.400;10.886;2023-04-25T00:51:41;95615.00;;;6.22;77.08
49451;BME280;35336;48.400;10.886;2023-04-25T00:51:56;95621.94;;;6.23;77.12
49451;BME280;35336;48.400;10.886;2023-04-25T00:52:12;95611.25;;;6.16;77.27
49451;BME280;35336;48.400;10.886;2023-04-25T00:52:27;95623.38;;;6.25;77.35
49451;BME280;35336;48.400;10.886;2023-04-25T00:52:44;95622.75;;;6.23;77.22
49451;BME280;35336;48.400;10.886;2023-04-25T00:53:00;95623.75;;;6.22;77.30
49451;BME280;35336;48.400;10.886;2023-04-25T00:53:15;95613.25;;;6.14;77.56
49451;BME280;35336;48.400;10.886;2023-04-25T00:53:31;95624.13;;;6.19;77.20
49451;BME280;35336;48.400;10.886;2023-04-25T00:53:49;95608.16;;;6.12;77.49
49451;BME280;35336;48.400;10.886;2023-04-25T00:54:04;95616.81;;;6.21;77.37
49451;BME280;35336;48.400;10.886;2023-04-25T00:54:19;95614.28;;;6.13;77.46
49451;BME280;35336;48.400;10.886;2023-04-25T00:54:35;95626.94;;;6.17;77.48
49451;BME280;35336;48.400;10.886;2023-04-25T00:54:50;95615.56;;;6.17;77.49
49451;BME280;35336;48.400;10.886;2023-04-25T00:55:07;95588.81;;;5.97;77.61
49451;BME280;35336;48.400;10.886;2023-04-25T00:55:22;95621.59;;;6.11;77.56
49451;BME280;35336;48.400;10.886;2023-04-25T00:55:38;95610.34;;;6.09;77.75
49451;BME280;35336;48.400;10.886;2023-04-25T00:55:53;95605.47;;;6.06;77.63
49451;BME280;35336;48.400;10.886;2023-04-25T00:56:09;95615.47;;;6.10;77.75
49451;BME280;35336;48.400;10.886;2023-04-25T00:56:24;95587.38;;;5.94;77.87
49451;BME280;35336;48.400;10.886;2023-04-25T00:56:40;95616.94;;;6.13;77.56
49451;BME280;35336;48.400;10.886;2023-04-25T00:56:56;95617.56;;;6.15;78.01
49451;BME280;35336;48.400;10.886;2023-04-25T00:57:12;95578.97;;;5.91;77.91
49451;BME280;35336;48.400;10.886;2023-04-25T00:57:27;95620.66;;;6.18;77.95
49451;BME280;35336;48.400;10.886;2023-04-25T00:57:42;95616.19;;;6.19;77.38
49451;BME280;35336;48.400;10.886;2023-04-25T00:57:58;95616.19;;;6.19;77.33
49451;BME280;35336;48.400;10.886;2023-04-25T00:58:13;95613.91;;;6.16;77.73
49451;BME280;35336;48.400;10.886;2023-04-25T00:58:29;95613.53;;;6.19;77.37
49451;BME280;35336;48.400;10.886;2023-04-25T00:58:44;95601.22;;;6.11;77.63
49451;BME280;35336;48.400;10.886;2023-04-25T00:59:00;95611.50;;;6.21;77.62
49451;BME280;35336;48.400;10.886;2023-04-25T00:59:15;95608.59;;;6.16;77.43
49451;BME280;35336;48.400;10.886;2023-04-25T00:59:31;95616.81;;;6.21;77.25
49451;BME280;35336;48.400;10.886;2023-04-25T00:59:46;95617.84;;;6.20;77.37
49451;BME280;35336;48.400;10.886;2023-04-25T01:00:03;95605.31;;;6.14;77.46
49451;BME280;35336;48.400;10.886;2023-04-25T01:00:19;95595.47;;;6.08;77.46
49451;BME280;35336;48.400;10.886;2023-04-25T01:00:36;95608.25;;;6.19;77.51
49451;BME280;35336;48.400;10.886;2023-04-25T01:00:51;95606.59;;;6.18;77.93
49451;BME280;35336;48.400;10.886;2023-04-25T01:01:07;95605.78;;;6.17;77.75
49451;BME280;35336;48.400;10.886;2023-04-25T01:01:23;95603.72;;;6.13;77.37
49451;BME280;35336;48.400;10.886;2023-04-25T01:01:38;95615.19;;;6.20;77.64
49451;BME280;35336;48.400;10.886;2023-04-25T01:01:54;95614.34;;;6.19;77.50
49451;BME280;35336;48.400;10.886;2023-04-25T01:02:09;95613.53;;;6.19;77.42
49451;BME280;35336;48.400;10.886;2023-04-25T01:02:25;95602.22;;;6.10;77.37
49451;BME280;35336;48.400;10.886;2023-04-25T01:02:40;95618.84;;;6.19;77.31
49451;BME280;35336;48.400;10.886;2023-04-25T01:02:56;95598.41;;;6.13;77.47
49451;BME280;35336;48.400;10.886;2023-04-25T01:03:11;95583.84;;;6.02;77.58
49451;BME280;35336;48.400;10.886;2023-04-25T01:03:26;95600.22;;;6.12;77.19
49451;BME280;35336;48.400;10.886;2023-04-25T01:03:42;95586.94;;;6.06;77.58
49451;BME280;35336;48.400;10.886;2023-04-25T01:04:00;95607.41;;;6.18;77.54
49451;BME280;35336;48.400;10.886;2023-04-25T01:04:16;95565.56;;;5.92;77.71
49451;BME280;35336;48.400;10.886;2023-04-25T01:04:31;95600.13;;;6.20;77.96
49451;BME280;35336;48.400;10.886;2023-04-25T01:04:47;95596.94;;;6.10;77.64
49451;BME280;35336;48.400;10.886;2023-04-25T01:05:03;95608.25;;;6.19;77.32
49451;BME280;35336;48.400;10.886;2023-04-25T01:05:19;95607.41;;;6.18;77.33
49451;BME280;35336;48.400;10.886;2023-04-25T01:05:34;95609.44;;;6.16;77.73
49451;BME280;35336;48.400;10.886;2023-04-25T01:05:50;95593.47;;;6.10;77.81
49451;BME280;35336;48.400;10.886;2023-04-25T01:06:10;95601.66;;;6.15;77.50
49451;BME280;35336;48.400;10.886;2023-04-25T01:06:25;95582.81;;;6.03;77.84
49451;BME280;35336;48.400;10.886;2023-04-25T01:06:41;95606.97;;;6.15;77.66
49451;BME280;35336;48.400;10.886;2023-04-25T01:06:56;95585.00;;;5.99;77.90
49451;BME280;35336;48.400;10.886;2023-04-25T01:07:13;95603.25;;;6.09;77.96
49451;BME280;35336;48.400;10.886;2023-04-25T01:07:28;95578.63;;;5.94;77.89
49451;BME280;35336;48.400;10.886;2023-04-25T01:07:44;95596.69;;;6.05;78.19
49451;BME280;35336;48.400;10.886;2023-04-25T01:07:59;95592.38;;;6.04;77.90
49451;BME280;35336;48.400;10.886;2023-04-25T01:08:15;95595.88;;;6.04;77.69
49451;BME280;35336;48.400;10.886;2023-04-25T01:08:30;95600.31;;;6.04;78.04
49451;BME280;35336;48.400;10.886;2023-04-25T01:08:46;95604.72;;;6.12;77.96
49451;BME280;35336;48.400;10.886;2023-04-25T01:09:02;95590.94;;;6.01;78.26
49451;BME280;35336;48.400;10.886;2023-04-25T01:09:18;95607.34;;;6.12;78.10
49451;BME280;35336;48.400;10.886;2023-04-25T01:09:34;95586.00;;;5.98;77.88
49451;BME280;35336;48.400;10.886;2023-04-25T01:09:51;95607.34;;;6.12;78.19
49451;BME280;35336;48.400;10.886;2023-04-25T01:10:07;95601.41;;;6.10;77.93
49451;BME280;35336;48.400;10.886;2023-04-25T01:10:23;95604.25;;;6.08;78.16
49451;BME280;35336;48.400;10.886;2023-04-25T01:10:38;95603.88;;;6.11;77.91
49451;BME280;35336;48.400;10.886;2023-04-25T01:10:53;95607.34;;;6.12;78.08
49451;BME280;35336;48.400;10.886;2023-04-25T01:11:09;95593.84;;;6.07;78.17
49451;BME280;35336;48.400;10.886;2023-04-25T01:11:24;95592.03;;;6.07;77.95
49451;BME280;35336;48.400;10.886;2023-04-25T01:11:40;95605.16;;;6.15;77.79
49451;BME280;35336;48.400;10.886;2023-04-25T01:11:55;95595.88;;;6.04;77.79
49451;BME280;35336;48.400;10.886;2023-04-25T01:12:11;95610.44;;;6.15;78.11
49451;BME280;35336;48.400;10.886;2023-04-25T01:12:26;95603.50;;;6.14;77.75
49451;BME280;35336;48.400;10.886;2023-04-25T01:12:42;95602.31;;;6.17;78.03
49451;BME280;35336;48.400;10.886;2023-04-25T01:12:57;95598.41;;;6.13;77.76
49451;BME280;35336;48.400;10.886;2023-04-25T01:13:12;95598.84;;;6.16;77.90
49451;BME280;35336;48.400;10.886;2023-04-25T01:13:28;95591.03;;;6.08;78.08
49451;BME280;35336;48.400;10.886;2023-04-25T01:13:43;95598.84;;;6.16;78.08
49451;BME280;35336;48.400;10.886;2023-04-25T01:13:58;95603.13;;;6.17;77.88
49451;BME280;35336;48.400;10.886;2023-04-25T01:14:14;95594.28;;;6.10;77.71
49451;BME280;35336;48.400;10.886;2023-04-25T01:14:29;95580.00;;;6.04;77.90
49451;BME280;35336;48.400;10.886;2023-04-25T01:14:45;95583.53;;;6.12;77.63
49451;BME280;35336;48.400;10.886;2023-04-25T01:15:00;95596.81;;;6.18;77.79
49451;BME280;35336;48.400;10.886;2023-04-25T01:15:16;95593.56;;;6.16;77.79
49451;BME280;35336;48.400;10.886;2023-04-25T01:15:31;95588.19;;;6.10;77.66
49451;BME280;35336;48.400;10.886;2023-04-25T01:15:47;95596.81;;;6.18;77.71
49451;BME280;35336;48.400;10.886;2023-04-25T01:16:03;95604.97;;;6.17;78.25
49451;BME280;35336;48.400;10.886;2023-04-25T01:16:18;95591.53;;;6.18;77.90
49451;BME280;35336;48.400;10.886;2023-04-25T01:16:34;95590.72;;;6.18;77.94
49451;BME280;35336;48.400;10.886;2023-04-25T01:16:49;95591.53;;;6.18;78.11
49451;BME280;35336;48.400;10.886;2023-04-25T01:17:05;95597.66;;;6.19;78.04
49451;BME280;35336;48.400;10.886;2023-04-25T01:17:20;95589.28;;;6.15;78.01
49451;BME280;35336;48.400;10.886;2023-04-25T01:17:36;95589.44;;;6.14;78.38
49451;BME280;35336;48.400;10.886;2023-04-25T01:17:51;95578.78;;;6.07;78.03
49451;BME280;35336;48.400;10.886;2023-04-25T01:18:07;95579.59;;;6.08;78.19
49451;BME280;35336;48.400;10.886;2023-04-25T01:18:22;95554.16;;;5.92;78.48
49451;BME280;35336;48.400;10.886;2023-04-25T01:18:41;95573.69;;;6.06;78.51
49451;BME280;35336;48.400;10.886;2023-04-25T01:18:57;95581.25;;;6.09;78.56
49451;BME280;35336;48.400;10.886;2023-04-25T01:19:16;95588.19;;;6.10;78.35
49451;BME280;35336;48.400;10.886;2023-04-25T01:19:31;95590.28;;;6.14;78.80
49451;BME280;35336;48.400;10.886;2023-04-25T01:19:47;95556.38;;;5.88;78.70
49451;BME280;35336;48.400;10.886;2023-04-25T01:20:04;95562.28;;;5.90;78.69
49451;BME280;35336;48.400;10.886;2023-04-25T01:20:21;95561.25;;;5.91;78.72
49451;BME280;35336;48.400;10.886;2023-04-25T01:20:38;95590.47;;;6.13;79.10
49451;BME280;35336;48.400;10.886;2023-04-25T01:20:54;95592.28;;;6.12;78.87
49451;BME280;35336;48.400;10.886;2023-04-25T01:21:13;95584.44;;;6.04;79.16
49451;BME280;35336;48.400;10.886;2023-04-25T01:21:28;95580.59;;;6.07;79.63
49451;BME280;35336;48.400;10.886;2023-04-25T01:21:44;95593.72;;;6.15;79.37
49451;BME280;35336;48.400;10.886;2023-04-25T01:22:00;95588.44;;;6.15;79.61
49451;BME280;35336;48.400;10.886;2023-04-25T01:22:16;95576.34;;;6.06;79.64
49451;BME280;35336;48.400;10.886;2023-04-25T01:22:32;95581.63;;;6.06;80.12
49451;BME280;35336;48.400;10.886;2023-04-25T01:22:48;95592.72;;;6.16;80.21
49451;BME280;35336;48.400;10.886;2023-04-25T01:23:04;95568.41;;;6.06;80.51
49451;BME280;35336;48.400;10.886;2023-04-25T01:23:21;95574.31;;;6.08;80.34